createdAt,value
2022-08-27T00:02:06.770Z,101526.97
2022-08-27T00:04:36.148Z,101527.00
2022-08-27T00:07:04.251Z,101520.88
2022-08-27T00:09:32.036Z,101526.44
2022-08-27T00:11:59.622Z,101522.94
2022-08-27T00:14:28.668Z,101522.13
2022-08-27T00:16:57.321Z,101516.84
2022-08-27T00:19:25.169Z,101514.22
2022-08-27T00:21:52.291Z,101517.81
2022-08-27T00:24:19.568Z,101515.19
2022-08-27T00:26:46.841Z,101510.91
2022-08-27T00:29:14.080Z,101516.28
2022-08-27T00:31:41.297Z,101515.38
2022-08-27T00:34:09.119Z,101519.91
2022-08-27T00:36:41.406Z,101514.81
2022-08-27T00:39:08.595Z,101507.84
2022-08-27T00:41:35.988Z,101524.78
2022-08-27T00:44:03.430Z,101516.97
2022-08-27T00:46:46.938Z,101519.78
2022-08-27T00:49:20.198Z,101513.63
2022-08-27T00:52:04.661Z,101515.53
2022-08-27T00:54:32.535Z,101511.25
2022-08-27T00:57:01.174Z,101513.91
2022-08-27T00:59:31.109Z,101515.72
2022-08-27T01:02:18.137Z,101515.78
2022-08-27T01:05:11.020Z,101514.16
2022-08-27T01:07:43.886Z,101514.22
2022-08-27T01:10:18.446Z,101517.06
2022-08-27T01:12:53.540Z,101510.84
2022-08-27T01:15:27.935Z,101513.72
2022-08-27T01:17:56.636Z,101515.53
2022-08-27T01:20:53.067Z,101513.91
2022-08-27T01:23:50.923Z,101514.78
2022-08-27T01:26:18.765Z,101513.97
2022-08-27T01:28:46.105Z,101514.09
2022-08-27T01:31:13.913Z,101513.25
2022-08-27T01:33:41.423Z,101518.50
2022-08-27T01:36:08.608Z,101526.56
2022-08-27T01:38:35.717Z,101514.13
2022-08-27T01:41:03.778Z,101519.47
2022-08-27T01:43:31.783Z,101520.44
2022-08-27T01:45:59.392Z,101523.09
2022-08-27T01:48:26.516Z,101526.63
2022-08-27T01:50:53.679Z,101518.75
2022-08-27T01:53:25.720Z,101523.25
2022-08-27T01:55:54.575Z,101519.66
2022-08-27T01:58:26.704Z,101516.09
2022-08-27T02:00:59.469Z,101508.22
2022-08-27T02:03:27.322Z,101510.84
2022-08-27T02:05:54.757Z,101509.97
2022-08-27T02:08:22.138Z,101500.28
2022-08-27T02:10:50.119Z,101505.75
2022-08-27T02:13:18.780Z,101506.69
2022-08-27T02:15:45.978Z,101504.94
2022-08-27T02:18:15.035Z,101507.56
2022-08-27T02:20:44.993Z,101504.97
2022-08-27T02:23:16.277Z,101500.50
2022-08-27T02:25:44.807Z,101505.81
2022-08-27T02:28:12.422Z,101506.69
2022-08-27T02:30:40.009Z,101509.28
2022-08-27T02:33:10.174Z,101511.00
2022-08-27T02:35:44.386Z,101510.09
2022-08-27T02:38:13.287Z,101513.63
2022-08-27T02:40:41.207Z,101501.22
2022-08-27T02:43:08.969Z,101508.25
2022-08-27T02:45:37.550Z,101501.28
2022-08-27T02:48:08.022Z,101505.72
2022-08-27T02:50:36.218Z,101501.31
2022-08-27T02:53:06.003Z,101499.59
2022-08-27T02:55:33.814Z,101499.59
2022-08-27T02:58:01.395Z,101504.00
2022-08-27T03:00:29.447Z,101506.72
2022-08-27T03:02:57.684Z,101500.59
2022-08-27T03:05:25.535Z,101503.28
2022-08-27T03:07:52.721Z,101509.50
2022-08-27T03:10:21.152Z,101499.84
2022-08-27T03:12:48.697Z,101513.03
2022-08-27T03:15:17.983Z,101498.94
2022-08-27T03:18:04.133Z,101505.16
2022-08-27T03:20:32.669Z,101501.59
2022-08-27T03:23:00.698Z,101506.00
2022-08-27T03:25:27.979Z,101509.56
2022-08-27T03:27:55.300Z,101513.09
2022-08-27T03:30:24.041Z,101504.31
2022-08-27T03:32:51.837Z,101503.38
2022-08-27T03:35:20.673Z,101514.00
2022-08-27T03:37:48.761Z,101515.84
2022-08-27T03:40:16.667Z,101510.56
2022-08-27T03:42:43.958Z,101504.41
2022-08-27T03:45:12.270Z,101510.56
2022-08-27T03:47:40.387Z,101519.41
2022-08-27T03:50:08.783Z,101515.84
2022-08-27T03:52:37.082Z,101513.13
2022-08-27T03:55:07.570Z,101513.25
2022-08-27T03:57:34.705Z,101515.88
2022-08-27T04:00:01.927Z,101522.06
2022-08-27T04:02:29.339Z,101515.84
2022-08-27T04:04:57.827Z,101517.59
2022-08-27T04:07:25.696Z,101510.53
2022-08-27T04:09:52.852Z,101510.53
2022-08-27T04:12:20.000Z,101510.50
2022-08-27T04:14:50.669Z,101510.63
2022-08-27T04:17:17.879Z,101509.66
2022-08-27T04:19:45.513Z,101507.88
2022-08-27T04:22:13.416Z,101498.22
2022-08-27T04:24:41.501Z,101504.38
2022-08-27T04:27:08.826Z,101508.84
2022-08-27T04:29:35.970Z,101504.44
2022-08-27T04:32:04.200Z,101503.56
2022-08-27T04:34:31.691Z,101512.50
2022-08-27T04:37:00.019Z,101519.56
2022-08-27T04:39:30.353Z,101520.44
2022-08-27T04:42:00.987Z,101518.66
2022-08-27T04:44:32.916Z,101516.88
2022-08-27T04:47:04.435Z,101528.34
2022-08-27T04:49:34.038Z,101524.84
2022-08-27T04:52:01.280Z,101523.97
2022-08-27T04:54:32.419Z,101526.63
2022-08-27T04:57:00.655Z,101527.50
2022-08-27T04:59:27.653Z,101529.25
2022-08-27T05:01:54.727Z,101529.25
2022-08-27T05:04:22.120Z,101535.41
2022-08-27T05:06:50.733Z,101527.47
2022-08-27T05:09:21.989Z,101526.59
2022-08-27T05:11:54.080Z,101524.84
2022-08-27T05:14:22.315Z,101529.25
2022-08-27T05:16:49.518Z,101523.91
2022-08-27T05:19:16.630Z,101523.88
2022-08-27T05:21:50.430Z,101530.94
2022-08-27T05:24:18.846Z,101530.00
2022-08-27T05:26:46.502Z,101535.34
2022-08-27T05:29:14.390Z,101538.81
2022-08-27T05:31:42.302Z,101536.13
2022-08-27T05:34:14.123Z,101543.09
2022-08-27T05:36:51.977Z,101536.06
2022-08-27T05:39:19.411Z,101536.88
2022-08-27T05:41:46.709Z,101541.19
2022-08-27T05:47:05.182Z,101535.75
2022-08-27T05:49:32.737Z,101541.06
2022-08-27T05:52:00.041Z,101540.88
2022-08-27T05:54:27.587Z,101540.78
2022-08-27T05:56:54.859Z,101538.03
2022-08-27T05:59:40.733Z,101539.63
2022-08-27T06:02:08.376Z,101547.66
2022-08-27T06:04:36.512Z,101545.81
2022-08-27T06:07:04.593Z,101543.06
2022-08-27T06:09:31.853Z,101550.06
2022-08-27T06:12:00.478Z,101550.06
2022-08-27T06:14:28.437Z,101551.72
2022-08-27T06:16:56.366Z,101547.28
2022-08-27T06:19:24.149Z,101546.22
2022-08-27T06:22:00.222Z,101543.53
2022-08-27T06:24:29.596Z,101544.34
2022-08-27T06:26:58.059Z,101548.72
2022-08-27T06:29:25.691Z,101545.97
2022-08-27T06:31:55.141Z,101544.13
2022-08-27T06:34:22.750Z,101538.75
2022-08-27T06:36:50.264Z,101544.91
2022-08-27T06:39:18.125Z,101546.53
2022-08-27T06:41:45.601Z,101550.91
2022-08-27T06:44:14.340Z,101549.19
2022-08-27T06:46:43.268Z,101549.06
2022-08-27T06:49:12.608Z,101548.19
2022-08-27T06:51:43.328Z,101544.47
2022-08-27T06:54:13.218Z,101549.59
2022-08-27T06:56:42.487Z,101543.22
2022-08-27T06:59:18.899Z,101543.09
2022-08-27T07:01:49.770Z,101539.59
2022-08-27T07:04:32.113Z,101544.94
2022-08-27T07:07:04.964Z,101547.38
2022-08-27T07:12:15.234Z,101544.59
2022-08-27T07:14:42.998Z,101539.91
2022-08-27T07:17:16.435Z,101539.75
2022-08-27T07:19:45.301Z,101544.56
2022-08-27T07:22:13.570Z,101538.19
2022-08-27T07:24:44.065Z,101541.66
2022-08-27T07:27:12.293Z,101545.16
2022-08-27T07:29:40.899Z,101547.75
2022-08-27T07:32:08.152Z,101552.00
2022-08-27T07:34:38.257Z,101553.16
2022-08-27T07:37:05.468Z,101553.59
2022-08-27T07:39:32.648Z,101551.66
2022-08-27T07:42:18.781Z,101563.31
2022-08-27T07:44:45.944Z,101552.63
2022-08-27T07:47:13.685Z,101554.63
2022-08-27T07:49:41.015Z,101563.22
2022-08-27T07:52:08.126Z,101558.13
2022-08-27T07:54:35.227Z,101558.56
2022-08-27T07:57:02.340Z,101558.97
2022-08-27T07:59:29.550Z,101557.16
2022-08-27T08:01:58.065Z,101558.84
2022-08-27T08:04:26.638Z,101556.03
2022-08-27T08:06:55.722Z,101551.09
2022-08-27T08:09:25.041Z,101556.53
2022-08-27T08:11:52.658Z,101567.16
2022-08-27T08:14:20.652Z,101560.19
2022-08-27T08:16:52.575Z,101569.97
2022-08-27T08:19:20.325Z,101574.53
2022-08-27T08:21:47.857Z,101566.78
2022-08-27T08:24:14.948Z,101573.72
2022-08-27T08:26:42.326Z,101574.44
2022-08-27T08:29:16.668Z,101582.72
2022-08-27T08:31:50.212Z,101581.50
2022-08-27T08:34:19.580Z,101582.22
2022-08-27T08:36:53.823Z,101577.59
2022-08-27T08:39:22.059Z,101581.38
2022-08-27T08:42:03.007Z,101587.56
2022-08-27T08:44:37.273Z,101584.56
2022-08-27T08:47:33.197Z,101583.22
2022-08-27T08:50:21.403Z,101578.91
2022-08-27T08:53:13.883Z,101581.25
2022-08-27T08:55:41.484Z,101580.75
2022-08-27T08:58:38.287Z,101592.38
2022-08-27T09:01:09.621Z,101587.25
2022-08-27T09:03:49.470Z,101589.56
2022-08-27T09:07:02.682Z,101601.88
2022-08-27T09:10:34.584Z,101606.31
2022-08-27T09:13:05.543Z,101599.28
2022-08-27T09:15:36.488Z,101600.22
2022-08-27T09:18:14.171Z,101605.03
2022-08-27T09:20:50.499Z,101603.53
2022-08-27T09:23:38.488Z,101599.59
2022-08-27T09:26:15.950Z,101599.34
2022-08-27T09:29:01.811Z,101604.53
2022-08-27T09:31:29.747Z,101601.44
2022-08-27T09:33:57.330Z,101598.84
2022-08-27T09:36:25.979Z,101593.63
2022-08-27T09:39:02.277Z,101597.97
2022-08-27T09:41:47.725Z,101603.84
2022-08-27T09:44:21.389Z,101584.75
2022-08-27T09:47:02.265Z,101588.59
2022-08-27T09:49:31.244Z,101586.22
2022-08-27T09:51:59.125Z,101590.91
2022-08-27T09:54:47.268Z,101602.31
2022-08-27T09:57:36.308Z,101604.88
2022-08-27T10:00:08.923Z,101607.16
2022-08-27T10:02:36.051Z,101594.06
2022-08-27T10:05:26.877Z,101611.16
2022-08-27T10:08:04.642Z,101602.72
2022-08-27T10:10:58.395Z,101601.06
2022-08-27T10:13:48.090Z,101591.09
2022-08-27T10:16:29.500Z,101594.00
2022-08-27T10:19:29.919Z,101594.16
2022-08-27T10:22:35.979Z,101593.16
2022-08-27T10:25:35.737Z,101599.97
2022-08-27T10:28:13.917Z,101601.91
2022-08-27T10:30:55.785Z,101591.88
2022-08-27T10:33:31.835Z,101595.47
2022-08-27T10:36:30.129Z,101597.09
2022-08-27T10:39:11.401Z,101593.50
2022-08-27T10:41:51.403Z,101592.66
2022-08-27T10:44:50.369Z,101599.47
2022-08-27T10:47:32.384Z,101602.66
2022-08-27T10:50:11.687Z,101591.75
2022-08-27T10:52:47.904Z,101589.72
2022-08-27T10:55:40.457Z,101589.59
2022-08-27T10:58:16.632Z,101587.41
2022-08-27T11:01:02.963Z,101580.72
2022-08-27T11:03:48.252Z,101584.28
2022-08-27T11:06:50.426Z,101581.00
2022-08-27T11:09:35.263Z,101572.53
2022-08-27T11:12:14.248Z,101571.50
2022-08-27T11:15:04.969Z,101577.66
2022-08-27T11:18:09.043Z,101576.41
2022-08-27T11:21:12.681Z,101575.78
2022-08-27T11:24:03.119Z,101582.03
2022-08-27T11:26:33.742Z,101575.63
2022-08-27T11:29:29.684Z,101570.63
2022-08-27T11:32:11.643Z,101583.13
2022-08-27T11:34:47.969Z,101580.16
2022-08-27T11:37:59.950Z,101579.41
2022-08-27T11:40:50.746Z,101574.06
2022-08-27T11:43:23.849Z,101577.03
2022-08-27T11:46:04.635Z,101578.50
2022-08-27T11:48:44.153Z,101573.34
2022-08-27T11:51:19.015Z,101572.13
2022-08-27T11:54:08.987Z,101572.69
2022-08-27T11:56:43.395Z,101572.31
2022-08-27T11:59:33.414Z,101580.38
2022-08-27T12:02:25.938Z,101588.38
2022-08-27T12:05:07.099Z,101565.78
2022-08-27T12:07:40.002Z,101575.19
2022-08-27T12:10:47.537Z,101586.69
2022-08-27T12:13:43.847Z,101577.69
2022-08-27T12:16:42.159Z,101575.16
2022-08-27T12:19:43.073Z,101570.56
2022-08-27T12:22:55.623Z,101566.75
2022-08-27T12:25:23.993Z,101567.34
2022-08-27T12:28:05.278Z,101569.03
2022-08-27T12:30:49.475Z,101563.47
2022-08-27T12:33:33.070Z,101574.72
2022-08-27T12:36:13.625Z,101568.84
2022-08-27T12:38:50.474Z,101571.78
2022-08-27T12:41:44.465Z,101581.84
2022-08-27T12:44:29.279Z,101574.56
2022-08-27T12:47:03.423Z,101568.28
2022-08-27T12:49:44.928Z,101576.63
2022-08-27T12:52:34.999Z,101570.56
2022-08-27T12:55:28.765Z,101571.78
2022-08-27T12:58:55.248Z,101577.19
2022-08-27T13:01:33.961Z,101562.81
2022-08-27T13:04:01.755Z,101564.69
2022-08-27T13:06:36.903Z,101559.81
2022-08-27T13:09:08.771Z,101561.16
2022-08-27T13:11:47.421Z,101553.19
2022-08-27T13:14:21.133Z,101553.00
2022-08-27T13:17:14.833Z,101556.72
2022-08-27T13:19:51.350Z,101558.31
2022-08-27T13:22:31.002Z,101551.91
2022-08-27T13:25:00.053Z,101549.53
2022-08-27T13:27:32.658Z,101555.56
2022-08-27T13:30:35.882Z,101557.66
2022-08-27T13:33:05.922Z,101548.28
2022-08-27T13:35:37.662Z,101537.13
2022-08-27T13:38:05.637Z,101553.66
2022-08-27T13:40:38.817Z,101549.72
2022-08-27T13:43:12.498Z,101553.16
2022-08-27T13:45:41.825Z,101540.88
2022-08-27T13:48:12.724Z,101544.56
2022-08-27T13:50:56.417Z,101537.53
2022-08-27T13:53:50.312Z,101541.88
2022-08-27T13:56:36.503Z,101527.78
2022-08-27T13:59:19.494Z,101527.34
2022-08-27T14:02:00.583Z,101532.22
2022-08-27T14:04:40.469Z,101526.25
2022-08-27T14:07:34.502Z,101533.34
2022-08-27T14:10:26.163Z,101523.00
2022-08-27T14:13:22.307Z,101529.38
2022-08-27T14:15:54.261Z,101519.78
2022-08-27T14:19:04.049Z,101525.13
2022-08-27T14:21:33.077Z,101525.13
2022-08-27T14:24:00.160Z,101527.66
2022-08-27T14:26:27.702Z,101529.38
2022-08-27T14:28:55.793Z,101532.56
2022-08-27T14:31:23.785Z,101535.66
2022-08-27T14:33:54.579Z,101525.97
2022-08-27T14:36:27.814Z,101532.22
2022-08-27T14:38:59.138Z,101526.50
2022-08-27T14:41:27.340Z,101530.84
2022-08-27T14:43:54.345Z,101537.59
2022-08-27T14:46:31.164Z,101532.31
2022-08-27T14:49:00.711Z,101532.97
2022-08-27T14:51:32.420Z,101526.25
2022-08-27T14:53:59.441Z,101521.41
2022-08-27T14:56:27.182Z,101536.63
2022-08-27T14:58:55.869Z,101536.44
2022-08-27T15:01:25.592Z,101537.38
2022-08-27T15:03:54.745Z,101535.13
2022-08-27T15:06:23.630Z,101531.28
2022-08-27T15:08:51.871Z,101532.69
2022-08-27T15:11:23.918Z,101524.78
2022-08-27T15:13:56.159Z,101523.63
2022-08-27T15:16:43.050Z,101521.34
2022-08-27T15:19:13.638Z,101512.03
2022-08-27T15:21:44.230Z,101520.94
2022-08-27T15:24:30.359Z,101526.38
2022-08-27T15:26:58.081Z,101521.38
2022-08-27T15:29:26.864Z,101513.78
2022-08-27T15:31:54.341Z,101513.13
2022-08-27T15:34:21.560Z,101524.59
2022-08-27T15:36:48.573Z,101521.28
2022-08-27T15:39:17.499Z,101526.00
2022-08-27T15:42:05.864Z,101517.00
2022-08-27T15:44:32.252Z,101524.94
2022-08-27T15:46:59.330Z,101519.19
2022-08-27T15:49:26.404Z,101516.16
2022-08-27T15:51:53.628Z,101513.09
2022-08-27T15:54:21.370Z,101520.00
2022-08-27T15:56:48.356Z,101514.88
2022-08-27T15:59:16.835Z,101512.03
2022-08-27T16:01:44.886Z,101513.75
2022-08-27T16:04:12.612Z,101511.72
2022-08-27T16:06:39.714Z,101518.59
2022-08-27T16:09:06.849Z,101515.16
2022-08-27T16:11:34.072Z,101515.38
2022-08-27T16:14:01.461Z,101520.06
2022-08-27T16:16:32.421Z,101520.72
2022-08-27T16:19:03.151Z,101511.94
2022-08-27T16:21:30.866Z,101507.66
2022-08-27T16:23:57.915Z,101501.06
2022-08-27T16:26:25.006Z,101510.47
2022-08-27T16:28:52.061Z,101515.91
2022-08-27T16:31:19.446Z,101515.25
2022-08-27T16:33:46.970Z,101514.28
2022-08-27T16:36:14.345Z,101506.59
2022-08-27T16:38:41.929Z,101514.78
2022-08-27T16:41:09.135Z,101511.41
2022-08-27T16:43:36.411Z,101512.56
2022-08-27T16:46:03.735Z,101510.28
2022-08-27T16:48:49.458Z,101509.56
2022-08-27T16:51:34.791Z,101509.88
2022-08-27T16:54:07.113Z,101505.66
2022-08-27T16:56:37.668Z,101505.53
2022-08-27T16:59:05.834Z,101498.53
2022-08-27T17:01:33.619Z,101502.53
2022-08-27T17:04:16.120Z,101493.38
2022-08-27T17:06:45.677Z,101498.25
2022-08-27T17:09:13.340Z,101496.75
2022-08-27T17:11:43.077Z,101498.13
2022-08-27T17:14:12.242Z,101500.94
2022-08-27T17:16:41.735Z,101499.19
2022-08-27T17:19:11.049Z,101498.19
2022-08-27T17:21:45.440Z,101504.72
2022-08-27T17:24:13.444Z,101504.41
2022-08-27T17:26:41.281Z,101504.16
2022-08-27T17:29:08.472Z,101503.28
2022-08-27T17:31:40.483Z,101506.59
2022-08-27T17:34:12.280Z,101502.34
2022-08-27T17:36:39.458Z,101501.72
2022-08-27T17:39:06.771Z,101503.44
2022-08-27T17:41:40.389Z,101507.06
2022-08-27T17:44:33.174Z,101507.06
2022-08-27T17:47:03.227Z,101512.44
2022-08-27T17:49:31.284Z,101508.75
2022-08-27T17:52:06.909Z,101512.59
2022-08-27T17:54:44.629Z,101506.69
2022-08-27T17:57:22.533Z,101505.44
2022-08-27T17:59:50.926Z,101508.25
2022-08-27T18:02:58.945Z,101509.16
2022-08-27T18:05:26.220Z,101522.41
2022-08-27T18:07:53.838Z,101518.44
2022-08-27T18:10:26.179Z,101517.44
2022-08-27T18:12:55.930Z,101520.19
2022-08-27T18:15:33.893Z,101511.56
2022-08-27T18:18:02.045Z,101519.66
2022-08-27T18:20:31.451Z,101518.03
2022-08-27T18:23:00.272Z,101520.59
2022-08-27T18:25:35.815Z,101525.88
2022-08-27T18:28:08.096Z,101530.97
2022-08-27T18:30:36.073Z,101530.28
2022-08-27T18:33:04.648Z,101529.47
2022-08-27T18:35:33.927Z,101535.81
2022-08-27T18:38:01.715Z,101530.78
2022-08-27T18:40:36.927Z,101536.13
2022-08-27T18:43:05.247Z,101538.94
2022-08-27T18:45:34.660Z,101533.53
2022-08-27T18:48:03.691Z,101535.81
2022-08-27T18:50:30.753Z,101542.84
2022-08-27T18:52:57.910Z,101550.09
2022-08-27T18:55:28.137Z,101550.19
2022-08-27T18:57:55.503Z,101546.78
2022-08-27T19:00:23.016Z,101553.03
2022-08-27T19:02:52.559Z,101547.84
2022-08-27T19:05:25.322Z,101550.66
2022-08-27T19:07:53.938Z,101555.47
2022-08-27T19:10:21.544Z,101552.75
2022-08-27T19:12:48.879Z,101559.97
2022-08-27T19:15:16.832Z,101569.00
2022-08-27T19:17:53.643Z,101565.56
2022-08-27T19:20:21.040Z,101579.88
2022-08-27T19:22:51.531Z,101571.19
2022-08-27T19:25:18.684Z,101577.50
2022-08-27T19:27:46.736Z,101578.47
2022-08-27T19:30:15.637Z,101583.97
2022-08-27T19:32:47.120Z,101578.47
2022-08-27T19:35:19.509Z,101591.69
2022-08-27T19:37:53.000Z,101589.16
2022-08-27T19:40:22.444Z,101597.22
2022-08-27T19:42:50.876Z,101606.09
2022-08-27T19:45:23.732Z,101597.56
2022-08-27T19:47:56.350Z,101599.38
2022-08-27T19:50:24.385Z,101598.63
2022-08-27T19:52:53.040Z,101593.34
2022-08-27T19:55:21.285Z,101599.56
2022-08-27T19:57:51.318Z,101592.38
2022-08-27T20:00:27.647Z,101592.28
2022-08-27T20:02:55.820Z,101597.44
2022-08-27T20:05:23.509Z,101597.75
2022-08-27T20:07:53.418Z,101589.72
2022-08-27T20:10:36.267Z,101589.16
2022-08-27T20:13:06.339Z,101593.47
2022-08-27T20:15:34.770Z,101596.06
2022-08-27T20:18:03.000Z,101599.56
2022-08-27T20:20:31.399Z,101592.72
2022-08-27T20:23:00.056Z,101599.88
2022-08-27T20:25:27.196Z,101596.44
2022-08-27T20:27:59.001Z,101598.19
2022-08-27T20:30:31.373Z,101604.28
2022-08-27T20:33:00.158Z,101600.69
2022-08-27T20:35:27.954Z,101604.19
2022-08-27T20:37:57.748Z,101600.81
2022-08-27T20:40:31.610Z,101601.78
2022-08-27T20:43:01.912Z,101600.91
2022-08-27T20:45:31.658Z,101603.63
2022-08-27T20:48:04.294Z,101601.69
2022-08-27T20:50:31.491Z,101608.03
2022-08-27T20:52:58.661Z,101615.16
2022-08-27T20:55:25.808Z,101621.38
2022-08-27T20:58:11.668Z,101613.50
2022-08-27T21:00:42.198Z,101616.03
2022-08-27T21:03:12.759Z,101617.00
2022-08-27T21:05:42.496Z,101624.13
2022-08-27T21:08:10.520Z,101612.66
2022-08-27T21:10:58.035Z,101615.44
2022-08-27T21:13:27.600Z,101629.69
2022-08-27T21:15:56.471Z,101628.97
2022-08-27T21:18:29.823Z,101624.44
2022-08-27T21:21:02.597Z,101629.13
2022-08-27T21:23:31.059Z,101628.16
2022-08-27T21:26:04.169Z,101625.53
2022-08-27T21:28:32.915Z,101630.09
2022-08-27T21:31:00.143Z,101632.75
2022-08-27T21:33:27.209Z,101629.28
2022-08-27T21:35:54.372Z,101636.25
2022-08-27T21:38:21.634Z,101641.78
2022-08-27T21:40:48.725Z,101644.41
2022-08-27T21:43:15.828Z,101644.63
2022-08-27T21:45:43.143Z,101644.59
2022-08-27T21:48:10.578Z,101651.75
2022-08-27T21:50:37.866Z,101641.25
2022-08-27T21:53:05.036Z,101642.91
2022-08-27T21:55:33.424Z,101637.75
2022-08-27T21:58:00.455Z,101642.16
2022-08-27T22:00:29.990Z,101642.31
2022-08-27T22:02:57.708Z,101644.25
2022-08-27T22:05:24.924Z,101645.13
2022-08-27T22:07:52.147Z,101646.81
2022-08-27T22:10:19.637Z,101646.16
2022-08-27T22:12:46.810Z,101645.13
2022-08-27T22:15:14.141Z,101654.91
2022-08-27T22:17:41.124Z,101644.56
2022-08-27T22:20:11.094Z,101647.19
2022-08-27T22:22:38.693Z,101652.63
2022-08-27T22:25:06.602Z,101653.59
2022-08-27T22:27:33.675Z,101644.81
2022-08-27T22:30:01.037Z,101648.25
2022-08-27T22:32:28.138Z,101657.25
2022-08-27T22:34:55.168Z,101654.63
2022-08-27T22:37:22.337Z,101654.63
2022-08-27T22:39:49.526Z,101659.19
2022-08-27T22:42:18.319Z,101656.50
2022-08-27T22:44:45.569Z,101661.91
2022-08-27T22:47:14.955Z,101655.81
2022-08-27T22:49:43.350Z,101660.22
2022-08-27T22:52:10.999Z,101663.75
2022-08-27T22:54:38.324Z,101657.84
2022-08-27T22:57:05.644Z,101661.28
2022-08-27T22:59:38.439Z,101671.91
2022-08-27T23:02:08.472Z,101662.19
2022-08-27T23:04:54.627Z,101676.34
2022-08-27T23:07:24.664Z,101671.03
2022-08-27T23:09:51.899Z,101675.56
2022-08-27T23:12:19.883Z,101663.25
2022-08-27T23:14:46.973Z,101674.91
2022-08-27T23:17:16.124Z,101681.03
2022-08-27T23:19:43.846Z,101676.78
2022-08-27T23:22:11.371Z,101679.28
2022-08-27T23:25:04.044Z,101670.47
2022-08-27T23:27:31.456Z,101671.34
2022-08-27T23:30:01.955Z,101674.28
2022-08-27T23:32:29.931Z,101667.91
2022-08-27T23:34:57.511Z,101672.50
2022-08-27T23:37:24.899Z,101671.63
2022-08-27T23:39:51.931Z,101673.41
2022-08-27T23:42:19.393Z,101675.97
2022-08-27T23:44:48.877Z,101674.34
2022-08-27T23:47:16.833Z,101666.31
2022-08-27T23:49:44.028Z,101681.47
2022-08-27T23:52:13.052Z,101678.81
2022-08-27T23:54:40.337Z,101679.59
2022-08-27T23:57:07.485Z,101679.69
2022-08-27T23:59:35.604Z,101677.16
